createdAt,value
2019-02-21T00:00:55.289Z,0.00
2019-02-21T00:01:55.402Z,0.00
2019-02-21T00:02:55.536Z,0.00
2019-02-21T00:03:55.657Z,0.00
2019-02-21T00:04:55.805Z,0.00
2019-02-21T00:05:55.926Z,0.00
2019-02-21T00:06:56.056Z,0.00
2019-02-21T00:07:56.183Z,0.00
2019-02-21T00:08:56.328Z,0.00
2019-02-21T00:09:56.448Z,0.00
2019-02-21T00:10:56.587Z,0.00
2019-02-21T00:11:56.712Z,0.00
2019-02-21T00:12:56.856Z,0.00
2019-02-21T00:13:57.054Z,0.00
2019-02-21T00:14:57.059Z,0.00
2019-02-21T00:15:57.185Z,0.00
2019-02-21T00:16:57.337Z,0.00
2019-02-21T00:17:57.466Z,0.00
2019-02-21T00:18:57.585Z,0.00
2019-02-21T00:19:57.714Z,0.00
2019-02-21T00:20:57.863Z,0.00
2019-02-21T00:21:58.029Z,0.00
2019-02-21T00:22:58.160Z,0.00
2019-02-21T00:23:58.282Z,0.00
2019-02-21T00:24:58.436Z,0.00
2019-02-21T00:25:58.563Z,0.00
2019-02-21T00:26:58.687Z,0.00
2019-02-21T00:27:58.806Z,0.00
2019-02-21T00:28:58.936Z,0.00
2019-02-21T00:29:59.066Z,0.00
2019-02-21T00:30:59.205Z,0.00
2019-02-21T00:31:59.487Z,0.00
2019-02-21T00:32:59.472Z,0.00
2019-02-21T00:33:59.599Z,0.00
2019-02-21T00:34:59.728Z,0.00
2019-02-21T00:35:59.936Z,0.00
2019-02-21T00:37:00.072Z,0.00
2019-02-21T00:38:00.081Z,0.00
2019-02-21T00:39:00.204Z,0.00
2019-02-21T00:40:00.377Z,0.00
2019-02-21T00:41:00.464Z,0.00
2019-02-21T00:42:00.593Z,0.00
2019-02-21T00:43:00.727Z,0.00
2019-02-21T00:44:00.849Z,0.00
2019-02-21T00:45:00.983Z,0.00
2019-02-21T00:46:01.107Z,0.00
2019-02-21T00:47:01.255Z,0.00
2019-02-21T00:48:01.402Z,0.00
2019-02-21T00:49:01.520Z,0.00
2019-02-21T00:50:01.650Z,0.00
2019-02-21T00:51:01.781Z,0.00
2019-02-21T00:52:02.805Z,0.00
2019-02-21T00:53:02.035Z,0.00
2019-02-21T00:54:10.875Z,0.00
2019-02-21T00:55:02.350Z,0.00
2019-02-21T00:56:02.499Z,0.00
2019-02-21T00:57:02.616Z,0.00
2019-02-21T00:58:02.777Z,0.00
2019-02-21T00:59:02.902Z,0.00
2019-02-21T01:00:03.027Z,0.00
2019-02-21T01:01:03.149Z,0.00
2019-02-21T01:02:03.281Z,0.00
2019-02-21T01:03:03.403Z,0.00
2019-02-21T01:04:03.553Z,0.00
2019-02-21T01:05:03.668Z,0.00
2019-02-21T01:06:03.796Z,0.00
2019-02-21T01:07:03.919Z,0.00
2019-02-21T01:08:04.048Z,0.00
2019-02-21T01:09:04.168Z,0.00
2019-02-21T01:10:04.295Z,0.00
2019-02-21T01:11:04.448Z,0.00
2019-02-21T01:12:04.572Z,0.00
2019-02-21T01:13:04.700Z,0.00
2019-02-21T01:14:04.825Z,0.00
2019-02-21T01:15:04.977Z,0.00
2019-02-21T01:16:05.323Z,0.00
2019-02-21T01:17:05.462Z,0.00
2019-02-21T01:18:05.489Z,0.00
2019-02-21T01:19:05.508Z,0.00
2019-02-21T01:20:05.625Z,0.00
2019-02-21T01:21:05.752Z,0.00
2019-02-21T01:22:05.875Z,0.00
2019-02-21T01:23:06.026Z,0.00
2019-02-21T01:24:06.945Z,0.00
2019-02-21T01:25:06.269Z,0.00
2019-02-21T01:26:08.619Z,0.00
2019-02-21T01:27:06.497Z,0.00
2019-02-21T01:28:06.618Z,0.00
2019-02-21T01:29:06.745Z,0.00
2019-02-21T01:30:08.526Z,0.00
2019-02-21T01:31:07.828Z,0.00
2019-02-21T01:32:07.109Z,0.00
2019-02-21T01:33:08.675Z,0.00
2019-02-21T01:34:07.442Z,0.00
2019-02-21T01:35:08.831Z,0.00
2019-02-21T01:36:07.622Z,0.00
2019-02-21T01:37:07.749Z,0.00
2019-02-21T01:38:07.889Z,0.00
2019-02-21T01:39:09.585Z,0.00
2019-02-21T01:40:08.087Z,0.00
2019-02-21T01:41:08.212Z,0.00
2019-02-21T01:42:08.593Z,0.00
2019-02-21T01:43:09.263Z,0.00
2019-02-21T01:45:41.892Z,0.00
2019-02-21T01:46:42.147Z,0.00
2019-02-21T01:47:42.164Z,0.00
2019-02-21T01:48:42.383Z,0.00
2019-02-21T01:49:42.058Z,0.00
2019-02-21T01:50:41.943Z,0.00
2019-02-21T01:51:42.383Z,0.00
2019-02-21T01:52:42.254Z,0.00
2019-02-21T01:53:42.383Z,0.00
2019-02-21T01:54:43.001Z,0.00
2019-02-21T01:55:42.625Z,0.00
2019-02-21T01:56:42.762Z,0.00
2019-02-21T01:57:42.878Z,0.00
2019-02-21T01:58:42.996Z,0.00
2019-02-21T01:59:43.124Z,0.00
2019-02-21T02:00:43.252Z,0.00
2019-02-21T02:01:43.373Z,0.00
2019-02-21T02:02:43.538Z,0.00
2019-02-21T02:03:43.666Z,0.00
2019-02-21T02:04:43.811Z,0.00
2019-02-21T02:05:43.919Z,0.00
2019-02-21T02:06:44.348Z,0.00
2019-02-21T02:07:44.761Z,0.00
2019-02-21T02:10:17.001Z,0.00
2019-02-21T02:11:18.941Z,0.00
2019-02-21T02:12:17.153Z,0.00
2019-02-21T02:13:24.542Z,0.00
2019-02-21T02:14:17.835Z,0.00
2019-02-21T02:15:17.959Z,0.00
2019-02-21T02:16:17.662Z,0.00
2019-02-21T02:17:17.961Z,0.00
2019-02-21T02:18:17.724Z,0.00
2019-02-21T02:19:17.984Z,0.00
2019-02-21T02:20:18.203Z,0.00
2019-02-21T02:21:18.877Z,0.00
2019-02-21T02:22:18.509Z,0.00
2019-02-21T02:23:19.456Z,0.00
2019-02-21T02:24:19.177Z,0.00
2019-02-21T02:25:18.592Z,0.00
2019-02-21T02:26:18.715Z,0.00
2019-02-21T02:27:19.087Z,0.00
2019-02-21T02:28:19.254Z,0.00
2019-02-21T02:29:19.423Z,0.00
2019-02-21T02:30:19.103Z,0.00
2019-02-21T02:31:23.279Z,0.00
2019-02-21T02:32:19.443Z,0.00
2019-02-21T02:33:19.985Z,0.00
2019-02-21T02:34:20.320Z,0.00
2019-02-21T02:35:19.712Z,0.00
2019-02-21T02:36:20.529Z,0.00
2019-02-21T02:37:20.445Z,0.00
2019-02-21T02:38:20.241Z,0.00
2019-02-21T02:39:20.264Z,0.00
2019-02-21T02:40:20.890Z,0.00
2019-02-21T02:41:20.506Z,0.00
2019-02-21T02:42:20.633Z,0.00
2019-02-21T02:43:21.264Z,0.00
2019-02-21T02:44:21.127Z,0.00
2019-02-21T02:45:20.981Z,0.00
2019-02-21T02:46:21.251Z,0.00
2019-02-21T02:47:21.950Z,0.00
2019-02-21T02:48:21.352Z,0.00
2019-02-21T02:49:21.876Z,0.00
2019-02-21T02:50:21.694Z,0.00
2019-02-21T02:51:22.120Z,0.00
2019-02-21T02:52:22.469Z,0.00
2019-02-21T02:53:22.263Z,0.00
2019-02-21T02:54:23.337Z,0.00
2019-02-21T02:55:22.640Z,0.00
2019-02-21T02:56:22.793Z,0.00
2019-02-21T02:57:22.872Z,0.00
2019-02-21T02:58:22.873Z,0.00
2019-02-21T02:59:22.913Z,0.00
2019-02-21T03:00:23.137Z,0.00
2019-02-21T03:01:34.372Z,0.00
2019-02-21T03:02:24.093Z,0.00
2019-02-21T03:03:23.463Z,0.00
2019-02-21T03:04:24.126Z,0.00
2019-02-21T03:05:23.748Z,0.00
2019-02-21T03:06:24.008Z,0.00
2019-02-21T03:07:24.407Z,0.00
2019-02-21T03:08:24.324Z,0.00
2019-02-21T03:09:24.328Z,0.00
2019-02-21T03:10:24.953Z,0.00
2019-02-21T03:11:24.897Z,0.00
2019-02-21T03:12:24.746Z,0.00
2019-02-21T03:13:24.766Z,0.00
2019-02-21T03:14:24.926Z,0.00
2019-02-21T03:15:25.023Z,0.00
2019-02-21T03:16:25.151Z,0.00
2019-02-21T03:17:26.723Z,0.00
2019-02-21T03:18:25.371Z,0.00
2019-02-21T03:19:27.096Z,0.00
2019-02-21T03:20:26.896Z,0.00
2019-02-21T03:21:25.742Z,0.00
2019-02-21T03:22:34.199Z,0.00
2019-02-21T03:23:28.024Z,0.00
2019-02-21T03:24:28.151Z,0.00
2019-02-21T03:25:26.750Z,0.00
2019-02-21T03:26:28.393Z,0.00
2019-02-21T03:27:27.735Z,0.00
2019-02-21T03:30:06.206Z,0.00
2019-02-21T03:31:05.176Z,0.00
2019-02-21T03:32:05.902Z,0.00
2019-02-21T03:33:05.309Z,0.00
2019-02-21T03:35:39.080Z,0.00
2019-02-21T03:36:38.615Z,0.00
2019-02-21T03:37:38.083Z,0.00
2019-02-21T03:38:38.616Z,0.00
2019-02-21T03:41:16.785Z,0.00
2019-02-21T03:42:14.584Z,0.00
2019-02-21T03:44:52.805Z,0.00
2019-02-21T03:45:52.291Z,0.00
2019-02-21T03:46:51.248Z,0.00
2019-02-21T03:47:51.127Z,0.00
2019-02-21T03:48:52.986Z,0.00
2019-02-21T03:49:53.204Z,0.00
2019-02-21T03:50:53.424Z,0.00
2019-02-21T03:51:52.919Z,0.00
2019-02-21T03:54:29.423Z,0.00
2019-02-21T03:55:30.477Z,0.00
2019-02-21T03:56:32.158Z,0.00
2019-02-21T03:57:30.863Z,0.00
2019-02-21T03:58:31.563Z,0.00
2019-02-21T03:59:33.312Z,0.00
2019-02-21T04:00:30.304Z,0.00
2019-02-21T04:01:32.897Z,0.00
2019-02-21T04:02:32.383Z,0.00
2019-02-21T04:03:31.362Z,0.00
2019-02-21T04:04:30.927Z,0.00
2019-02-21T04:07:09.260Z,0.00
2019-02-21T04:08:06.167Z,0.00
2019-02-21T04:09:07.151Z,0.00
2019-02-21T04:10:07.016Z,0.00
2019-02-21T04:12:43.240Z,0.00
2019-02-21T04:13:42.075Z,0.00
2019-02-21T04:14:41.725Z,0.00
2019-02-21T04:15:42.830Z,0.00
2019-02-21T04:16:40.691Z,0.00
2019-02-21T04:17:45.111Z,0.00
2019-02-21T04:18:41.013Z,0.00
2019-02-21T04:19:41.182Z,0.00
2019-02-21T04:20:41.315Z,0.00
2019-02-21T04:21:43.801Z,0.00
2019-02-21T04:22:41.607Z,0.00
2019-02-21T04:23:42.640Z,0.00
2019-02-21T04:24:42.654Z,0.00
2019-02-21T04:25:42.024Z,0.00
2019-02-21T04:26:43.587Z,0.00
2019-02-21T04:27:53.446Z,0.00
2019-02-21T04:28:45.823Z,0.00
2019-02-21T04:29:42.549Z,0.00
2019-02-21T04:30:42.677Z,0.00
2019-02-21T04:31:42.804Z,0.00
2019-02-21T04:32:42.939Z,0.00
2019-02-21T04:33:43.416Z,0.00
2019-02-21T04:34:43.191Z,0.00
2019-02-21T04:35:45.418Z,0.00
2019-02-21T04:36:49.113Z,0.00
2019-02-21T04:37:43.500Z,0.00
2019-02-21T04:38:43.623Z,0.00
2019-02-21T04:39:43.903Z,0.00
2019-02-21T04:40:48.541Z,0.00
2019-02-21T04:41:47.140Z,0.00
2019-02-21T04:42:44.159Z,0.00
2019-02-21T04:43:47.858Z,0.00
2019-02-21T04:44:44.368Z,0.00
2019-02-21T04:45:46.679Z,0.00
2019-02-21T04:46:44.920Z,0.00
2019-02-21T04:47:45.294Z,0.00
2019-02-21T04:48:45.389Z,0.00
2019-02-21T04:49:45.779Z,0.00
2019-02-21T04:50:45.801Z,0.00
2019-02-21T04:51:46.364Z,0.00
2019-02-21T04:52:45.259Z,0.00
2019-02-21T04:53:46.159Z,0.00
2019-02-21T04:54:45.862Z,0.00
2019-02-21T04:55:46.263Z,0.00
2019-02-21T04:56:46.497Z,0.00
2019-02-21T04:57:45.934Z,0.00
2019-02-21T04:58:46.816Z,0.00
2019-02-21T04:59:46.200Z,0.00
2019-02-21T05:00:47.190Z,0.00
2019-02-21T05:01:46.968Z,0.00
2019-02-21T05:02:46.700Z,0.00
2019-02-21T05:03:46.909Z,0.00
2019-02-21T05:04:47.277Z,0.00
2019-02-21T05:05:47.075Z,0.00
2019-02-21T05:06:47.555Z,0.00
2019-02-21T05:07:47.617Z,0.00
2019-02-21T05:08:47.921Z,0.00
2019-02-21T05:09:57.334Z,0.00
2019-02-21T05:10:47.810Z,0.00
2019-02-21T05:11:48.057Z,0.00
2019-02-21T05:12:48.383Z,0.00
2019-02-21T05:13:48.753Z,0.00
2019-02-21T05:14:48.111Z,0.00
2019-02-21T05:15:48.605Z,0.00
2019-02-21T05:16:48.364Z,0.00
2019-02-21T05:17:48.859Z,0.00
2019-02-21T05:18:48.624Z,0.00
2019-02-21T05:19:48.732Z,0.00
2019-02-21T05:20:48.908Z,0.00
2019-02-21T05:21:49.005Z,0.00
2019-02-21T05:22:49.141Z,0.00
2019-02-21T05:23:49.253Z,0.00
2019-02-21T05:24:49.383Z,0.00
2019-02-21T05:25:49.519Z,0.00
2019-02-21T05:26:49.643Z,0.00
2019-02-21T05:27:52.264Z,0.00
2019-02-21T05:30:30.639Z,0.00
2019-02-21T05:31:25.369Z,0.00
2019-02-21T05:32:25.516Z,0.00
2019-02-21T05:33:25.636Z,0.00
2019-02-21T05:34:25.764Z,0.00
2019-02-21T05:35:25.903Z,0.00
2019-02-21T05:36:26.044Z,0.00
2019-02-21T05:37:26.158Z,0.00
2019-02-21T05:38:26.266Z,0.00
2019-02-21T05:39:26.426Z,0.00
2019-02-21T05:40:28.421Z,0.00
2019-02-21T05:41:26.678Z,0.00
2019-02-21T05:42:26.799Z,0.00
2019-02-21T05:43:26.950Z,0.00
2019-02-21T05:44:27.048Z,0.00
2019-02-21T05:45:27.183Z,0.00
2019-02-21T05:46:27.373Z,0.00
2019-02-21T05:47:27.417Z,0.00
2019-02-21T05:48:27.545Z,0.00
2019-02-21T05:49:27.697Z,0.00
2019-02-21T05:50:27.813Z,0.00
2019-02-21T05:51:27.946Z,0.00
2019-02-21T05:52:28.063Z,0.00
2019-02-21T05:53:28.233Z,0.00
2019-02-21T05:54:28.346Z,0.00
2019-02-21T05:55:28.470Z,0.00
2019-02-21T05:56:28.596Z,0.00
2019-02-21T05:57:28.741Z,4.00
2019-02-21T05:58:28.886Z,4.00
2019-02-21T05:59:28.985Z,4.00
2019-02-21T06:00:29.129Z,0.00
2019-02-21T06:01:29.277Z,4.00
2019-02-21T06:02:29.398Z,4.00
2019-02-21T06:03:29.510Z,4.00
2019-02-21T06:04:29.650Z,8.00
2019-02-21T06:05:29.772Z,8.00
2019-02-21T06:06:29.899Z,12.00
2019-02-21T06:07:30.031Z,12.00
2019-02-21T06:08:30.173Z,12.00
2019-02-21T06:09:30.284Z,16.00
2019-02-21T06:10:30.412Z,20.00
2019-02-21T06:11:30.550Z,20.00
2019-02-21T06:12:33.518Z,24.00
2019-02-21T06:13:30.793Z,28.00
2019-02-21T06:14:30.920Z,32.00
2019-02-21T06:15:31.043Z,40.00
2019-02-21T06:16:32.792Z,44.00
2019-02-21T06:17:31.292Z,48.00
2019-02-21T06:18:31.442Z,56.00
2019-02-21T06:19:31.574Z,64.00
2019-02-21T06:20:33.678Z,68.00
2019-02-21T06:21:31.825Z,80.00
2019-02-21T06:22:31.941Z,88.00
2019-02-21T06:23:32.069Z,96.00
2019-02-21T06:24:32.191Z,104.00
2019-02-21T06:25:32.352Z,112.00
2019-02-21T06:26:32.463Z,124.00
2019-02-21T06:27:34.455Z,132.00
2019-02-21T06:28:32.725Z,144.00
2019-02-21T06:29:34.108Z,152.00
2019-02-21T06:30:32.969Z,160.00
2019-02-21T06:31:33.107Z,176.00
2019-02-21T06:32:33.253Z,192.00
2019-02-21T06:33:33.363Z,212.00
2019-02-21T06:34:33.841Z,224.00
2019-02-21T06:35:33.629Z,244.00
2019-02-21T06:36:33.764Z,256.00
2019-02-21T06:37:33.882Z,272.00
2019-02-21T06:38:34.052Z,288.00
2019-02-21T06:39:34.304Z,308.00
2019-02-21T06:40:36.427Z,328.00
2019-02-21T06:41:34.392Z,336.00
2019-02-21T06:42:34.988Z,344.00
2019-02-21T06:43:34.638Z,344.00
2019-02-21T06:44:37.910Z,348.00
2019-02-21T06:45:36.142Z,356.00
2019-02-21T06:46:35.019Z,352.00
2019-02-21T06:47:35.137Z,352.00
2019-02-21T06:48:35.263Z,352.00
2019-02-21T06:49:35.400Z,336.00
2019-02-21T06:50:35.517Z,316.00
2019-02-21T06:51:35.631Z,292.00
2019-02-21T06:52:35.768Z,284.00
2019-02-21T06:53:35.888Z,284.00
2019-02-21T06:54:36.013Z,248.00
2019-02-21T06:55:36.134Z,224.00
2019-02-21T06:56:36.252Z,236.00
2019-02-21T06:57:36.385Z,252.00
2019-02-21T06:58:36.519Z,260.00
2019-02-21T06:59:43.383Z,260.00
2019-02-21T07:00:36.759Z,264.00
2019-02-21T07:01:36.880Z,280.00
2019-02-21T07:02:37.009Z,308.00
2019-02-21T07:03:37.129Z,328.00
2019-02-21T07:04:37.274Z,356.00
2019-02-21T07:05:37.378Z,400.00
2019-02-21T07:06:39.243Z,428.00
2019-02-21T07:07:37.644Z,420.00
2019-02-21T07:08:40.026Z,400.00
2019-02-21T07:09:37.873Z,380.00
2019-02-21T07:10:37.998Z,372.00
2019-02-21T07:11:38.126Z,376.00
2019-02-21T07:12:38.251Z,388.00
2019-02-21T07:13:38.375Z,432.00
2019-02-21T07:14:38.502Z,472.00
2019-02-21T07:15:42.349Z,476.00
2019-02-21T07:16:38.733Z,464.00
2019-02-21T07:17:48.891Z,476.00
2019-02-21T07:18:42.835Z,488.00
2019-02-21T07:19:39.079Z,488.00
2019-02-21T07:20:39.846Z,496.00
2019-02-21T07:21:44.197Z,516.00
2019-02-21T07:22:39.458Z,524.00
2019-02-21T07:23:43.453Z,540.00
2019-02-21T07:24:39.705Z,556.00
2019-02-21T07:25:39.824Z,504.00
2019-02-21T07:26:39.949Z,444.00
2019-02-21T07:27:40.083Z,416.00
2019-02-21T07:28:41.630Z,428.00
2019-02-21T07:29:42.441Z,464.00
2019-02-21T07:30:42.886Z,508.00
2019-02-21T07:31:40.593Z,532.00
2019-02-21T07:32:40.711Z,580.00
2019-02-21T07:33:40.861Z,604.00
2019-02-21T07:34:40.979Z,636.00
2019-02-21T07:35:41.104Z,676.00
2019-02-21T07:36:41.241Z,724.00
2019-02-21T07:37:42.269Z,760.00
2019-02-21T07:38:41.493Z,752.00
2019-02-21T07:39:41.619Z,696.00
2019-02-21T07:40:41.741Z,636.00
2019-02-21T07:41:41.878Z,620.00
2019-02-21T07:42:41.992Z,640.00
2019-02-21T07:43:42.120Z,668.00
2019-02-21T07:44:42.261Z,684.00
2019-02-21T07:45:42.368Z,712.00
2019-02-21T07:46:42.498Z,744.00
2019-02-21T07:47:42.626Z,760.00
2019-02-21T07:48:42.750Z,764.00
2019-02-21T07:49:42.880Z,772.00
2019-02-21T07:50:43.005Z,784.00
2019-02-21T07:51:43.126Z,776.00
2019-02-21T07:52:43.248Z,708.00
2019-02-21T07:53:43.382Z,608.00
2019-02-21T07:54:43.522Z,520.00
2019-02-21T07:55:43.647Z,468.00
2019-02-21T07:56:43.772Z,436.00
2019-02-21T07:57:43.905Z,428.00
2019-02-21T07:58:44.028Z,412.00
2019-02-21T07:59:44.159Z,408.00
2019-02-21T08:00:44.294Z,408.00
2019-02-21T08:01:44.423Z,412.00
2019-02-21T08:02:44.541Z,412.00
2019-02-21T08:03:48.157Z,424.00
2019-02-21T08:04:44.805Z,440.00
2019-02-21T08:05:44.918Z,460.00
2019-02-21T08:06:45.045Z,488.00
2019-02-21T08:07:45.160Z,508.00
2019-02-21T08:08:45.293Z,528.00
2019-02-21T08:09:45.418Z,544.00
2019-02-21T08:10:45.615Z,560.00
2019-02-21T08:11:45.674Z,576.00
2019-02-21T08:12:45.832Z,600.00
2019-02-21T08:13:45.949Z,624.00
2019-02-21T08:14:46.085Z,656.00
2019-02-21T08:15:46.221Z,696.00
2019-02-21T08:16:46.368Z,760.00
2019-02-21T08:17:46.481Z,868.00
2019-02-21T08:18:46.603Z,992.00
2019-02-21T08:19:46.743Z,1048.00
2019-02-21T08:20:46.867Z,1088.00
2019-02-21T08:21:47.076Z,1136.00
2019-02-21T08:22:47.174Z,1200.00
2019-02-21T08:23:50.589Z,1268.00
2019-02-21T08:24:47.408Z,1328.00
2019-02-21T08:25:47.553Z,1432.00
2019-02-21T08:26:47.667Z,1624.00
2019-02-21T08:27:47.783Z,1832.00
2019-02-21T08:28:47.909Z,1916.00
2019-02-21T08:29:48.045Z,2016.00
2019-02-21T08:30:48.190Z,2172.00
2019-02-21T08:31:48.313Z,2304.00
2019-02-21T08:32:48.440Z,2304.00
2019-02-21T08:33:57.929Z,2288.00
2019-02-21T08:34:48.688Z,2276.00
2019-02-21T08:35:48.815Z,2284.00
2019-02-21T08:36:48.957Z,2304.00
2019-02-21T08:37:49.069Z,2212.00
2019-02-21T08:38:49.206Z,2120.00
2019-02-21T08:39:49.335Z,2072.00
2019-02-21T08:40:49.463Z,2028.00
2019-02-21T08:41:49.607Z,2000.00
2019-02-21T08:42:49.734Z,1976.00
2019-02-21T08:43:49.857Z,1988.00
2019-02-21T08:44:49.985Z,1976.00
2019-02-21T08:45:50.110Z,1928.00
2019-02-21T08:46:50.249Z,1904.00
2019-02-21T08:47:50.381Z,1872.00
2019-02-21T08:48:50.528Z,1840.00
2019-02-21T08:49:50.657Z,1800.00
2019-02-21T08:50:50.788Z,1768.00
2019-02-21T08:51:50.939Z,1712.00
2019-02-21T08:52:51.055Z,1648.00
2019-02-21T08:53:51.195Z,1600.00
2019-02-21T08:54:59.872Z,1564.00
2019-02-21T08:55:51.456Z,1544.00
2019-02-21T08:56:51.575Z,1532.00
2019-02-21T08:57:51.715Z,1548.00
2019-02-21T08:58:51.825Z,1552.00
2019-02-21T08:59:51.953Z,1500.00
2019-02-21T09:00:54.321Z,1488.00
2019-02-21T09:01:52.188Z,1500.00
2019-02-21T09:02:52.321Z,1500.00
2019-02-21T09:03:52.434Z,1556.00
2019-02-21T09:04:52.566Z,1588.00
2019-02-21T09:05:52.687Z,1528.00
2019-02-21T09:06:52.813Z,1536.00
2019-02-21T09:07:52.932Z,1572.00
2019-02-21T09:08:53.140Z,1588.00
2019-02-21T09:09:53.184Z,1596.00
2019-02-21T09:10:53.318Z,1576.00
2019-02-21T09:11:53.948Z,1528.00
2019-02-21T09:12:53.582Z,1460.00
2019-02-21T09:13:55.770Z,1400.00
2019-02-21T09:14:53.861Z,1360.00
2019-02-21T09:15:55.851Z,1320.00
2019-02-21T09:16:54.112Z,1296.00
2019-02-21T09:17:54.641Z,1292.00
2019-02-21T09:19:03.381Z,1276.00
2019-02-21T09:19:54.498Z,1248.00
2019-02-21T09:20:54.620Z,1236.00
2019-02-21T09:21:54.839Z,1216.00
2019-02-21T09:22:54.883Z,1244.00
2019-02-21T09:23:56.694Z,1296.00
2019-02-21T09:24:55.197Z,1368.00
2019-02-21T09:25:55.192Z,1428.00
2019-02-21T09:26:57.078Z,1476.00
2019-02-21T09:27:55.461Z,1504.00
2019-02-21T09:28:55.580Z,1556.00
2019-02-21T09:29:55.706Z,1616.00
2019-02-21T09:30:55.859Z,1680.00
2019-02-21T09:31:55.975Z,1740.00
2019-02-21T09:32:56.094Z,1768.00
2019-02-21T09:33:56.240Z,1812.00
2019-02-21T09:34:58.657Z,1824.00
2019-02-21T09:35:56.884Z,1784.00
2019-02-21T09:36:56.619Z,1748.00
2019-02-21T09:37:56.739Z,1752.00
2019-02-21T09:38:56.868Z,1828.00
2019-02-21T09:39:56.999Z,1968.00
2019-02-21T09:40:57.125Z,2116.00
2019-02-21T09:41:57.248Z,2240.00
2019-02-21T09:42:57.377Z,2324.00
2019-02-21T09:43:57.509Z,2400.00
2019-02-21T09:44:57.647Z,2516.00
2019-02-21T09:45:57.768Z,2616.00
2019-02-21T09:46:57.906Z,2752.00
2019-02-21T09:47:58.013Z,3024.00
2019-02-21T09:48:58.144Z,3420.00
2019-02-21T09:49:58.271Z,4020.00
2019-02-21T09:50:58.440Z,4836.00
2019-02-21T09:51:58.537Z,5376.00
2019-02-21T09:52:58.906Z,5944.00
2019-02-21T09:53:58.789Z,7252.00
2019-02-21T09:54:58.931Z,8368.00
2019-02-21T09:55:59.065Z,8784.00
2019-02-21T09:56:59.206Z,8296.00
2019-02-21T09:57:59.323Z,8016.00
2019-02-21T09:58:59.483Z,8088.00
2019-02-21T09:59:59.605Z,8220.00
2019-02-21T10:00:59.739Z,8028.00
2019-02-21T10:01:59.871Z,8016.00
2019-02-21T10:03:00.017Z,8796.00
2019-02-21T10:04:00.155Z,8520.00
2019-02-21T10:05:05.201Z,7292.00
2019-02-21T10:06:00.396Z,5544.00
2019-02-21T10:07:00.574Z,4888.00
2019-02-21T10:08:00.702Z,5500.00
2019-02-21T10:09:00.829Z,6456.00
2019-02-21T10:10:01.265Z,6312.00
2019-02-21T10:11:01.106Z,5968.00
2019-02-21T10:12:01.229Z,6052.00
2019-02-21T10:13:01.381Z,5088.00
2019-02-21T10:14:01.503Z,3980.00
2019-02-21T10:15:01.629Z,3540.00
2019-02-21T10:16:04.501Z,3524.00
2019-02-21T10:17:01.940Z,3604.00
2019-02-21T10:18:02.050Z,3632.00
2019-02-21T10:19:02.190Z,3572.00
2019-02-21T10:20:04.218Z,3512.00
2019-02-21T10:21:02.446Z,3508.00
2019-02-21T10:22:04.465Z,3636.00
2019-02-21T10:23:02.717Z,3520.00
2019-02-21T10:24:02.859Z,3000.00
2019-02-21T10:25:03.065Z,2608.00
2019-02-21T10:26:03.071Z,2432.00
2019-02-21T10:27:03.186Z,2500.00
2019-02-21T10:28:03.341Z,2496.00
2019-02-21T10:29:03.460Z,2556.00
2019-02-21T10:30:03.590Z,2740.00
2019-02-21T10:31:03.720Z,3076.00
2019-02-21T10:32:03.890Z,3108.00
2019-02-21T10:33:04.000Z,3268.00
2019-02-21T10:34:04.120Z,3976.00
2019-02-21T10:35:04.264Z,5632.00
2019-02-21T10:36:04.432Z,8156.00
2019-02-21T10:37:04.546Z,10132.00
2019-02-21T10:38:04.682Z,10740.00
2019-02-21T10:39:04.810Z,10816.00
2019-02-21T10:40:04.959Z,11440.00
2019-02-21T10:41:05.083Z,12144.00
2019-02-21T10:42:05.222Z,14036.00
2019-02-21T10:43:05.354Z,12628.00
2019-02-21T10:44:05.515Z,15288.00
2019-02-21T10:45:05.636Z,18880.00
2019-02-21T10:46:05.771Z,21280.00
2019-02-21T10:47:05.908Z,31904.00
2019-02-21T10:48:06.042Z,34848.00
2019-02-21T10:49:06.168Z,26656.00
2019-02-21T10:50:06.330Z,43616.00
2019-02-21T10:51:06.443Z,26272.00
2019-02-21T10:52:06.577Z,26656.00
2019-02-21T10:53:06.706Z,20608.00
2019-02-21T10:54:06.843Z,18080.00
2019-02-21T10:55:06.971Z,15660.00
2019-02-21T10:56:07.101Z,15088.00
2019-02-21T10:57:07.227Z,21856.00
2019-02-21T10:58:07.362Z,31168.00
2019-02-21T10:59:07.523Z,27936.00
2019-02-21T11:00:07.658Z,23936.00
2019-02-21T11:01:07.779Z,14184.00
2019-02-21T11:02:07.905Z,12748.00
2019-02-21T11:03:08.034Z,13956.00
2019-02-21T11:04:08.176Z,14024.00
2019-02-21T11:05:08.322Z,19520.00
2019-02-21T11:06:08.449Z,26368.00
2019-02-21T11:07:08.582Z,21088.00
2019-02-21T11:08:08.725Z,28416.00
2019-02-21T11:09:08.840Z,24672.00
2019-02-21T11:10:08.975Z,34208.00
2019-02-21T11:11:09.106Z,17760.00
2019-02-21T11:12:09.231Z,17952.00
2019-02-21T11:13:09.364Z,23104.00
2019-02-21T11:14:09.492Z,28928.00
2019-02-21T11:15:09.621Z,15472.00
2019-02-21T11:16:09.757Z,65888.00
2019-02-21T11:17:09.887Z,69280.00
2019-02-21T11:18:10.025Z,58752.00
2019-02-21T11:19:10.167Z,59104.00
2019-02-21T11:20:10.294Z,59712.00
2019-02-21T11:21:10.430Z,61728.00
2019-02-21T11:22:10.563Z,48480.00
2019-02-21T11:23:10.699Z,53696.00
2019-02-21T11:24:10.833Z,39744.00
2019-02-21T11:25:10.972Z,48928.00
2019-02-21T11:26:11.106Z,49024.00
2019-02-21T11:27:11.240Z,51104.00
2019-02-21T11:28:11.377Z,40992.00
2019-02-21T11:29:11.518Z,38016.00
2019-02-21T11:30:11.657Z,28448.00
2019-02-21T11:31:11.794Z,32736.00
2019-02-21T11:32:11.935Z,46784.00
2019-02-21T11:33:12.057Z,54784.00
2019-02-21T11:34:12.187Z,54432.00
2019-02-21T11:35:12.323Z,50720.00
2019-02-21T11:36:12.458Z,29056.00
2019-02-21T11:37:12.592Z,27040.00
2019-02-21T11:38:12.736Z,66624.00
2019-02-21T11:39:12.863Z,27648.00
2019-02-21T11:40:13.001Z,43552.00
2019-02-21T11:41:13.140Z,23808.00
2019-02-21T11:42:13.282Z,21472.00
2019-02-21T11:43:13.405Z,18464.00
2019-02-21T11:44:13.540Z,22816.00
2019-02-21T11:45:13.674Z,19456.00
2019-02-21T11:46:13.813Z,14412.00
2019-02-21T11:47:13.961Z,13744.00
2019-02-21T11:48:14.095Z,12940.00
2019-02-21T11:49:14.236Z,12860.00
2019-02-21T11:50:14.398Z,13380.00
2019-02-21T11:51:14.489Z,16928.00
2019-02-21T11:52:14.636Z,27712.00
2019-02-21T11:53:14.756Z,61184.00
2019-02-21T11:54:26.208Z,60320.00
2019-02-21T11:55:15.032Z,39712.00
2019-02-21T11:56:15.848Z,51200.00
2019-02-21T11:57:18.565Z,53344.00
2019-02-21T11:58:15.490Z,41152.00
2019-02-21T11:59:16.219Z,32448.00
2019-02-21T12:00:15.631Z,29632.00
2019-02-21T12:01:15.801Z,13984.00
2019-02-21T12:02:15.917Z,9432.00
2019-02-21T12:03:16.059Z,6960.00
2019-02-21T12:04:16.194Z,5776.00
2019-02-21T12:05:17.849Z,4964.00
2019-02-21T12:06:16.476Z,4000.00
2019-02-21T12:07:16.632Z,3432.00
2019-02-21T12:08:16.745Z,3204.00
2019-02-21T12:09:16.899Z,3392.00
2019-02-21T12:10:17.030Z,3924.00
2019-02-21T12:11:17.171Z,4864.00
2019-02-21T12:12:17.290Z,6012.00
2019-02-21T12:13:17.449Z,5208.00
2019-02-21T12:14:17.592Z,4252.00
2019-02-21T12:15:17.720Z,3772.00
2019-02-21T12:16:17.853Z,3504.00
2019-02-21T12:17:18.004Z,3340.00
2019-02-21T12:18:18.124Z,3332.00
2019-02-21T12:19:18.264Z,3420.00
2019-02-21T12:20:18.448Z,3388.00
2019-02-21T12:21:18.546Z,3400.00
2019-02-21T12:22:18.686Z,3512.00
2019-02-21T12:23:18.814Z,3548.00
2019-02-21T12:24:18.961Z,3548.00
2019-02-21T12:25:19.091Z,3888.00
2019-02-21T12:26:19.236Z,4328.00
2019-02-21T12:27:19.366Z,5212.00
2019-02-21T12:28:19.495Z,6068.00
2019-02-21T12:29:19.629Z,9960.00
2019-02-21T12:30:19.773Z,14040.00
2019-02-21T12:31:19.981Z,19328.00
2019-02-21T12:32:20.068Z,17824.00
2019-02-21T12:33:20.206Z,17408.00
2019-02-21T12:34:20.331Z,17184.00
2019-02-21T12:35:29.284Z,22496.00
2019-02-21T12:36:20.630Z,17568.00
2019-02-21T12:37:20.747Z,17408.00
2019-02-21T12:38:20.888Z,17152.00
2019-02-21T12:39:21.041Z,28832.00
2019-02-21T12:40:21.157Z,27296.00
2019-02-21T12:41:21.299Z,20960.00
2019-02-21T12:42:21.434Z,29856.00
2019-02-21T12:43:21.545Z,26656.00
2019-02-21T12:44:21.669Z,47232.00
2019-02-21T12:45:21.848Z,33600.00
2019-02-21T12:46:21.974Z,27232.00
2019-02-21T12:47:22.099Z,40000.00
2019-02-21T12:48:22.242Z,38656.00
2019-02-21T12:49:22.371Z,42464.00
2019-02-21T12:50:22.496Z,14660.00
2019-02-21T12:51:22.639Z,17184.00
2019-02-21T12:52:22.765Z,15680.00
2019-02-21T12:53:22.895Z,18560.00
2019-02-21T12:54:24.755Z,9604.00
2019-02-21T12:55:29.227Z,7392.00
2019-02-21T12:56:23.318Z,5480.00